Terminal Aerodrome Forecast
Issued by NWS

Home | Current Version | Previous Version | Text Only | Print | Product List | Glossary On
Versions: 1 2 3 4 5 6 7 8 9 10 11 12 13 14
000
FTUS41 KBOX 241120
TAFFMH
TAF
KFMH 241120Z 2412/2512 21005KT P6SM SKC
     FM241500 20010G18KT P6SM FEW250
     FM242200 19010KT P6SM FEW250
     FM250800 14011KT P6SM VCSH OVC025
     FM251000 14012KT P6SM -RA OVC015=

USA.gov is the U.S. government's official web portal to all federal, state and local government web resources and services.